Time;durP1;ratioP1;P1;durP2;ratioP2;P2;SDS_P1;SDS_P2;PMS_P1;PMS_P2;Temp;Humidity;BMP_temperature;BMP_pressure;BME280_temperature;BME280_humidity;BME280_pressure;Samples;Min_cycle;Max_cycle;Signal;HPM_P1;HPM_P2
2021/09/08 00:01:23;;;;;;;35.27;32.80;;;16.40;86.30;;;;;;5035672;28;20838;-70
2021/09/08 00:03:51;;;;;;;35.90;33.20;;;16.20;86.60;;;;;;5034110;28;20475;-69
2021/09/08 00:06:18;;;;;;;35.37;32.90;;;16.30;86.50;;;;;;5049307;28;20454;-69
2021/09/08 00:08:45;;;;;;;34.20;31.90;;;16.20;86.60;;;;;;5044785;28;20476;-69
2021/09/08 00:11:11;;;;;;;35.07;32.60;;;16.20;86.80;;;;;;5042051;28;20465;-70
2021/09/08 00:13:38;;;;;;;34.90;32.40;;;16.20;86.80;;;;;;5040828;28;20881;-70
2021/09/08 00:16:06;;;;;;;35.00;32.50;;;16.10;87.10;;;;;;5047285;28;20834;-69
2021/09/08 00:18:33;;;;;;;36.77;34.17;;;16.20;86.80;;;;;;5044212;28;20479;-70
2021/09/08 00:21:01;;;;;;;35.60;33.20;;;16.20;86.80;;;;;;5044438;28;20468;-70
2021/09/08 00:23:28;;;;;;;35.77;33.13;;;16.10;86.80;;;;;;5041905;28;20619;-69
2021/09/08 00:25:55;;;;;;;34.70;32.20;;;16.10;86.90;;;;;;5045409;28;20558;-70
2021/09/08 00:28:22;;;;;;;34.80;32.30;;;16.10;87.10;;;;;;5040142;28;20608;-70
2021/09/08 00:30:48;;;;;;;35.27;32.67;;;16.00;87.10;;;;;;5040756;28;20452;-70
2021/09/08 00:33:15;;;;;;;36.90;34.20;;;16.00;87.10;;;;;;5040965;28;20465;-70
2021/09/08 00:35:42;;;;;;;35.47;32.87;;;15.90;87.40;;;;;;5045755;28;20912;-70
2021/09/08 00:38:11;;;;;;;36.10;33.53;;;15.90;87.60;;;;;;5043182;28;20472;-70
2021/09/08 00:40:39;;;;;;;35.90;33.23;;;15.90;87.70;;;;;;5043197;28;20447;-70
2021/09/08 00:43:06;;;;;;;36.00;33.30;;;15.80;87.80;;;;;;5039625;28;20462;-70
2021/09/08 00:45:33;;;;;;;36.67;33.50;;;15.80;87.80;;;;;;5042900;28;20481;-69
2021/09/08 00:48:00;;;;;;;36.47;33.87;;;15.70;88.10;;;;;;5047475;28;21041;-70
2021/09/08 00:50:26;;;;;;;34.50;32.00;;;15.70;88.20;;;;;;5038204;28;20550;-70
2021/09/08 00:52:54;;;;;;;35.03;32.60;;;15.70;87.90;;;;;;5037023;28;20547;-70
2021/09/08 00:55:25;;;;;;;36.47;33.73;;;15.80;87.70;;;;;;5047176;28;20463;-70
2021/09/08 00:57:51;;;;;;;35.37;32.67;;;15.70;87.70;;;;;;5045566;28;20534;-70
2021/09/08 01:00:19;;;;;;;35.13;32.30;;;15.70;87.80;;;;;;5032951;28;20478;-70
2021/09/08 01:02:46;;;;;;;34.77;32.27;;;15.70;87.90;;;;;;5046082;28;20459;-70
2021/09/08 01:05:13;;;;;;;36.57;33.77;;;15.70;87.90;;;;;;5045559;28;20470;-70
2021/09/08 01:07:40;;;;;;;35.57;32.97;;;15.70;88.00;;;;;;5047492;28;20458;-70
2021/09/08 01:10:08;;;;;;;34.80;32.40;;;15.60;88.20;;;;;;5041118;28;20471;-70
2021/09/08 01:12:36;;;;;;;34.13;31.73;;;15.60;88.30;;;;;;5042439;28;20643;-69
2021/09/08 01:15:03;;;;;;;35.07;32.30;;;15.60;88.20;;;;;;5041200;28;20461;-70
2021/09/08 01:17:30;;;;;;;34.00;31.70;;;15.50;88.30;;;;;;5043561;28;20475;-70
2021/09/08 01:19:57;;;;;;;34.80;32.00;;;15.50;88.30;;;;;;5044537;28;20825;-70
2021/09/08 01:22:30;;;;;;;34.50;32.10;;;15.50;88.30;;;;;;5045361;28;20992;-69
2021/09/08 01:24:59;;;;;;;34.57;32.23;;;15.40;88.60;;;;;;5039848;28;20507;-69
2021/09/08 01:27:26;;;;;;;36.43;33.47;;;15.30;88.80;;;;;;5046337;28;20451;-70
2021/09/08 01:29:53;;;;;;;34.97;32.50;;;15.40;88.80;;;;;;5037692;28;20485;-70
2021/09/08 01:32:20;;;;;;;34.97;32.47;;;15.30;88.80;;;;;;5047509;28;20467;-69
2021/09/08 01:34:51;;;;;;;34.13;31.63;;;15.30;88.80;;;;;;5043401;28;20542;-69
2021/09/08 01:37:19;;;;;;;34.60;32.10;;;15.30;89.10;;;;;;5040965;28;20454;-70
2021/09/08 01:39:45;;;;;;;34.43;32.00;;;15.20;89.10;;;;;;5042904;28;20876;-70
2021/09/08 01:42:14;;;;;;;35.73;32.63;;;15.20;89.30;;;;;;5044639;28;20463;-70
2021/09/08 01:44:41;;;;;;;34.80;32.30;;;15.20;89.20;;;;;;5043554;28;20474;-70
2021/09/08 01:47:07;;;;;;;35.70;32.90;;;15.20;89.20;;;;;;5046515;28;20455;-70
2021/09/08 01:49:34;;;;;;;35.27;32.80;;;15.10;89.30;;;;;;5042881;28;21027;-70
2021/09/08 01:52:01;;;;;;;35.53;32.67;;;15.10;89.40;;;;;;5044456;28;20469;-71
2021/09/08 01:54:28;;;;;;;35.33;32.97;;;15.10;89.60;;;;;;5045752;28;20466;-70
2021/09/08 01:56:55;;;;;;;35.50;32.90;;;15.10;89.60;;;;;;5045198;28;20477;-70
2021/09/08 01:59:23;;;;;;;35.30;32.70;;;15.00;89.60;;;;;;5046873;28;20552;-70
2021/09/08 02:01:50;;;;;;;35.10;32.70;;;14.90;90.00;;;;;;5040427;28;20456;-69
2021/09/08 02:04:17;;;;;;;34.50;31.93;;;14.80;90.40;;;;;;5044949;28;20490;-70
2021/09/08 02:06:49;;;;;;;33.67;31.03;;;14.80;90.70;;;;;;5043467;28;20455;-69
2021/09/08 02:09:17;;;;;;;35.23;32.27;;;14.80;90.50;;;;;;5046107;28;20482;-70
2021/09/08 02:11:44;;;;;;;34.60;31.97;;;14.80;90.50;;;;;;5043781;28;20462;-70
2021/09/08 02:14:11;;;;;;;35.17;32.67;;;14.80;90.30;;;;;;5043731;28;20459;-70
2021/09/08 02:16:39;;;;;;;36.53;33.80;;;14.70;90.60;;;;;;5043540;28;20543;-69
2021/09/08 02:19:06;;;;;;;35.30;32.63;;;14.60;91.00;;;;;;5030324;28;20510;-70
2021/09/08 02:21:33;;;;;;;35.00;32.60;;;14.60;91.20;;;;;;5044657;28;20460;-70
2021/09/08 02:24:00;;;;;;;35.20;32.70;;;14.60;91.20;;;;;;5046481;28;20463;-70
2021/09/08 02:26:27;;;;;;;35.73;33.13;;;14.50;91.20;;;;;;5048506;28;20458;-70
2021/09/08 02:28:54;;;;;;;35.00;32.40;;;14.50;91.10;;;;;;5045251;28;20479;-70
2021/09/08 02:31:21;;;;;;;35.50;32.90;;;14.60;91.00;;;;;;5048553;28;20547;-71
2021/09/08 02:33:49;;;;;;;35.80;33.00;;;14.60;90.90;;;;;;5042918;28;20452;-71
2021/09/08 02:36:16;;;;;;;37.47;34.70;;;14.60;90.80;;;;;;5044001;28;20452;-70
2021/09/08 02:38:43;;;;;;;35.77;33.03;;;14.60;90.90;;;;;;5045680;28;20479;-70
2021/09/08 02:41:10;;;;;;;35.43;32.67;;;14.50;91.10;;;;;;5037407;28;20455;-70
2021/09/08 02:43:37;;;;;;;37.10;34.20;;;14.40;91.20;;;;;;5042112;28;20456;-70
2021/09/08 02:46:06;;;;;;;34.83;32.43;;;14.50;91.20;;;;;;5049707;28;20486;-70
2021/09/08 02:48:34;;;;;;;35.73;33.03;;;14.40;91.10;;;;;;5046379;28;20480;-70
2021/09/08 02:51:04;;;;;;;36.17;33.47;;;14.40;91.30;;;;;;5042110;28;20459;-70
2021/09/08 02:53:31;;;;;;;37.60;34.90;;;14.40;91.30;;;;;;5046898;28;20467;-70
2021/09/08 02:55:58;;;;;;;38.40;35.50;;;14.40;91.20;;;;;;5046217;28;20929;-70
2021/09/08 02:58:24;;;;;;;36.07;33.47;;;14.40;91.20;;;;;;5049468;28;20493;-70
2021/09/08 03:00:51;;;;;;;38.30;35.40;;;14.30;91.50;;;;;;5041316;28;20474;-70
2021/09/08 03:03:19;;;;;;;36.33;33.70;;;14.20;91.70;;;;;;5046841;28;20463;-69
2021/09/08 03:05:49;;;;;;;36.80;34.03;;;14.30;91.70;;;;;;5046115;28;20479;-70
2021/09/08 03:08:17;;;;;;;37.80;34.90;;;14.30;91.70;;;;;;5051183;28;20605;-70
2021/09/08 03:10:44;;;;;;;36.93;34.23;;;14.20;91.70;;;;;;5047071;28;20462;-70
2021/09/08 03:13:11;;;;;;;37.53;34.93;;;14.20;91.80;;;;;;5045905;28;20463;-70
2021/09/08 03:15:38;;;;;;;36.50;33.83;;;14.20;91.70;;;;;;5048559;28;20466;-70
2021/09/08 03:18:05;;;;;;;38.60;35.73;;;14.20;91.50;;;;;;5046472;28;20463;-70
2021/09/08 03:20:32;;;;;;;36.50;33.80;;;14.30;91.40;;;;;;5049138;28;20459;-70
2021/09/08 03:22:59;;;;;;;37.10;34.40;;;14.30;91.20;;;;;;5052174;28;20816;-70
2021/09/08 03:25:28;;;;;;;36.50;33.90;;;14.30;91.00;;;;;;5048174;28;20478;-70
2021/09/08 03:27:55;;;;;;;37.13;34.30;;;14.30;91.20;;;;;;5045107;28;20459;-70
2021/09/08 03:30:22;;;;;;;39.33;36.43;;;14.30;91.10;;;;;;5045890;28;20821;-69
2021/09/08 03:32:49;;;;;;;39.70;36.67;;;14.20;91.10;;;;;;5046232;28;20463;-70
2021/09/08 03:35:16;;;;;;;38.70;35.90;;;14.20;91.30;;;;;;5047100;28;20467;-70
2021/09/08 03:37:43;;;;;;;38.53;35.67;;;14.20;91.20;;;;;;5044185;28;20469;-70
2021/09/08 03:40:12;;;;;;;37.40;34.40;;;14.10;91.30;;;;;;5044694;28;20992;-70
2021/09/08 03:42:40;;;;;;;38.77;35.70;;;14.10;91.40;;;;;;5057276;28;20458;-70
2021/09/08 03:45:08;;;;;;;42.60;39.57;;;14.10;91.40;;;;;;5044754;28;20478;-70
2021/09/08 03:47:35;;;;;;;39.97;37.17;;;14.10;91.40;;;;;;5058888;28;20899;-70
2021/09/08 03:50:03;;;;;;;37.97;35.07;;;14.00;91.40;;;;;;5047627;28;20700;-70
2021/09/08 03:52:30;;;;;;;36.93;34.17;;;14.00;91.60;;;;;;5041316;28;20473;-70
2021/09/08 03:54:56;;;;;;;39.77;36.70;;;14.00;91.50;;;;;;5045613;28;20553;-69
2021/09/08 03:57:23;;;;;;;37.20;34.30;;;14.00;91.60;;;;;;5041453;28;20462;-70
2021/09/08 03:59:52;;;;;;;38.93;36.17;;;14.00;91.40;;;;;;5041834;28;20474;-70
2021/09/08 04:02:18;;;;;;;38.90;35.80;;;14.00;91.30;;;;;;5041616;28;20452;-70
2021/09/08 04:04:45;;;;;;;39.03;35.83;;;14.00;91.30;;;;;;5042782;28;20455;-70
2021/09/08 04:07:12;;;;;;;38.83;36.13;;;14.00;91.30;;;;;;5051411;28;20469;-69
2021/09/08 04:09:39;;;;;;;40.53;37.53;;;13.90;91.50;;;;;;5046943;28;20483;-70
2021/09/08 04:12:07;;;;;;;38.40;35.60;;;13.90;91.80;;;;;;5048690;28;20480;-69
2021/09/08 04:14:34;;;;;;;38.50;35.50;;;13.80;92.00;;;;;;5041348;28;20463;-70
2021/09/08 04:17:02;;;;;;;38.67;35.77;;;13.90;92.00;;;;;;5044812;28;20538;-69
2021/09/08 04:19:29;;;;;;;37.53;34.80;;;13.90;91.90;;;;;;5044040;28;20486;-70
2021/09/08 04:21:56;;;;;;;41.43;38.60;;;13.90;91.90;;;;;;5047263;28;20463;-70
2021/09/08 04:24:22;;;;;;;42.23;39.03;;;13.80;91.90;;;;;;5041969;28;20562;-69
2021/09/08 04:26:49;;;;;;;38.60;35.80;;;13.80;91.90;;;;;;5042688;28;20474;-70
2021/09/08 04:29:16;;;;;;;38.60;35.77;;;13.90;91.60;;;;;;5041832;28;20479;-70
2021/09/08 04:31:43;;;;;;;38.87;36.10;;;13.80;91.80;;;;;;5043469;28;20459;-70
2021/09/08 04:34:11;;;;;;;39.97;36.87;;;13.80;91.90;;;;;;5039398;28;20468;-70
2021/09/08 04:36:38;;;;;;;39.30;36.30;;;13.70;92.00;;;;;;5046493;28;20456;-70
2021/09/08 04:39:05;;;;;;;39.27;36.33;;;13.80;92.00;;;;;;5036338;28;20823;-69
2021/09/08 04:41:32;;;;;;;40.53;37.33;;;13.70;92.00;;;;;;5042512;28;20463;-70
2021/09/08 04:43:59;;;;;;;39.50;36.60;;;13.80;91.90;;;;;;5042023;28;20987;-70
2021/09/08 04:46:26;;;;;;;37.63;34.70;;;13.80;91.90;;;;;;5044219;28;20518;-70
2021/09/08 04:48:53;;;;;;;38.87;35.97;;;13.80;91.80;;;;;;5045593;28;20511;-70
2021/09/08 04:51:21;;;;;;;37.57;34.57;;;13.80;91.90;;;;;;5043509;28;20457;-70
2021/09/08 04:53:48;;;;;;;38.57;35.67;;;13.70;92.00;;;;;;5046241;28;20557;-70
2021/09/08 04:56:15;;;;;;;40.00;37.00;;;13.70;92.00;;;;;;5045682;28;20554;-70
2021/09/08 04:58:42;;;;;;;41.27;38.07;;;13.80;91.80;;;;;;5051224;28;20474;-71
2021/09/08 05:01:09;;;;;;;42.67;39.60;;;13.80;91.80;;;;;;5042032;28;20455;-70
2021/09/08 05:03:36;;;;;;;40.43;37.50;;;13.80;91.80;;;;;;5046514;28;20478;-70
2021/09/08 05:06:03;;;;;;;39.70;36.57;;;13.80;91.80;;;;;;5047220;28;20489;-70
2021/09/08 05:08:31;;;;;;;36.67;33.88;;;13.80;91.50;;;;;;5042666;28;20478;-70
2021/09/08 05:10:58;;;;;;;38.13;35.40;;;14.10;90.60;;;;;;5046321;28;20730;-70
2021/09/08 05:13:25;;;;;;;40.00;36.80;;;14.00;90.50;;;;;;5041431;28;20462;-71
2021/09/08 05:15:52;;;;;;;41.80;38.87;;;14.00;90.80;;;;;;5044401;28;20451;-70
2021/09/08 05:18:18;;;;;;;36.97;34.17;;;14.00;90.70;;;;;;5043104;28;20483;-72
2021/09/08 05:20:45;;;;;;;40.43;37.10;;;14.00;90.80;;;;;;5047354;28;20453;-71
2021/09/08 05:23:12;;;;;;;41.30;38.30;;;14.00;90.50;;;;;;5045619;28;20462;-70
2021/09/08 05:25:41;;;;;;;38.33;35.40;;;14.00;90.60;;;;;;5039363;28;21079;-69
2021/09/08 05:28:08;;;;;;;40.23;37.10;;;14.00;90.40;;;;;;5037483;28;20470;-70
2021/09/08 05:30:36;;;;;;;39.23;36.23;;;14.10;90.20;;;;;;5041306;28;20573;-70
2021/09/08 05:33:02;;;;;;;42.40;39.30;;;14.10;90.40;;;;;;5039625;28;20579;-69
2021/09/08 05:35:29;;;;;;;38.10;35.07;;;14.10;90.40;;;;;;5040161;28;20466;-72
2021/09/08 05:37:56;;;;;;;39.70;36.60;;;14.10;90.30;;;;;;5037877;28;20475;-70
2021/09/08 05:40:23;;;;;;;38.90;35.90;;;14.20;90.10;;;;;;5043604;28;20470;-71
2021/09/08 05:42:51;;;;;;;38.40;35.50;;;14.20;90.00;;;;;;5047879;28;20454;-70
2021/09/08 05:45:18;;;;;;;38.93;35.80;;;14.20;90.00;;;;;;5040471;28;20454;-70
2021/09/08 05:47:45;;;;;;;39.27;36.30;;;14.30;89.90;;;;;;5042751;28;20912;-71
2021/09/08 05:50:12;;;;;;;38.57;35.90;;;14.40;89.70;;;;;;5033026;28;20475;-70
2021/09/08 05:52:40;;;;;;;38.77;35.70;;;14.40;89.40;;;;;;5040057;28;20494;-70
2021/09/08 05:55:07;;;;;;;39.73;36.90;;;14.50;89.20;;;;;;5047750;28;20462;-70
2021/09/08 05:57:34;;;;;;;38.63;35.80;;;14.60;88.90;;;;;;5044532;28;20470;-70
2021/09/08 06:00:02;;;;;;;42.30;39.10;;;14.60;88.60;;;;;;5042037;28;20508;-70
2021/09/08 06:02:29;;;;;;;41.53;38.37;;;14.50;89.20;;;;;;5047215;28;20465;-70
2021/09/08 06:04:56;;;;;;;39.30;36.13;;;14.50;89.30;;;;;;5039012;28;20461;-70
2021/09/08 06:07:23;;;;;;;38.27;35.50;;;14.50;89.60;;;;;;5048436;28;20513;-70
2021/09/08 06:09:50;;;;;;;39.83;36.87;;;14.60;89.40;;;;;;5036377;28;20587;-70
2021/09/08 06:12:17;;;;;;;39.63;36.57;;;14.70;88.90;;;;;;5050093;28;20541;-70
2021/09/08 06:14:44;;;;;;;39.73;36.70;;;14.90;88.40;;;;;;5041217;28;20559;-70
2021/09/08 06:17:12;;;;;;;39.23;36.33;;;15.00;88.00;;;;;;5048291;28;20461;-69
2021/09/08 06:19:39;;;;;;;38.60;35.80;;;15.10;87.60;;;;;;5045336;28;20479;-69
2021/09/08 06:22:06;;;;;;;38.77;35.87;;;15.20;87.40;;;;;;5043093;28;20463;-70
2021/09/08 06:24:33;;;;;;;39.50;36.60;;;15.20;87.10;;;;;;5038641;28;20957;-72
2021/09/08 06:27:00;;;;;;;41.73;38.50;;;15.20;87.00;;;;;;5038455;28;20502;-70
2021/09/08 06:29:27;;;;;;;40.93;37.77;;;15.30;87.10;;;;;;5043771;28;20492;-70
2021/09/08 06:31:54;;;;;;;39.23;36.20;;;15.40;86.70;;;;;;5044943;28;20467;-69
2021/09/08 06:34:22;;;;;;;39.50;36.30;;;15.50;86.50;;;;;;5044157;28;20465;-70
2021/09/08 06:36:53;;;;;;;38.90;35.90;;;15.70;85.90;;;;;;5047907;28;20546;-69
2021/09/08 06:39:20;;;;;;;40.57;37.50;;;15.80;85.60;;;;;;5039538;28;20563;-70
2021/09/08 06:41:48;;;;;;;38.70;35.90;;;15.90;85.30;;;;;;5045128;28;20467;-70
2021/09/08 06:44:15;;;;;;;39.10;36.30;;;15.90;84.90;;;;;;5040319;28;21233;-70
2021/09/08 06:46:42;;;;;;;39.80;36.90;;;16.00;84.80;;;;;;5041359;28;20578;-69
2021/09/08 06:49:09;;;;;;;41.03;37.87;;;16.10;84.50;;;;;;5046045;28;20482;-69
2021/09/08 06:51:37;;;;;;;39.77;36.40;;;16.20;84.10;;;;;;5054987;28;20596;-70
2021/09/08 06:54:04;;;;;;;42.10;38.87;;;16.40;83.70;;;;;;5041514;28;20890;-70
2021/09/08 06:56:31;;;;;;;40.40;37.50;;;16.50;83.80;;;;;;5040619;28;20538;-70
2021/09/08 06:58:58;;;;;;;42.27;39.13;;;16.60;83.60;;;;;;5048738;28;20685;-70
2021/09/08 07:01:25;;;;;;;41.80;38.50;;;16.70;83.20;;;;;;5044938;28;20456;-69
2021/09/08 07:03:52;;;;;;;43.57;40.33;;;16.90;82.70;;;;;;5040954;28;20594;-70
2021/09/08 07:06:20;;;;;;;43.00;39.50;;;17.00;82.30;;;;;;5042791;28;20476;-69
2021/09/08 07:08:49;;;;;;;42.90;39.60;;;17.20;81.70;;;;;;5044590;28;20575;-70
2021/09/08 07:11:16;;;;;;;45.77;42.23;;;17.30;81.30;;;;;;5044383;28;20451;-70
2021/09/08 07:13:42;;;;;;;43.80;40.50;;;17.40;80.20;;;;;;5044673;28;20468;-70
2021/09/08 07:16:09;;;;;;;46.37;42.93;;;17.50;79.80;;;;;;5046890;28;20460;-71
2021/09/08 07:18:37;;;;;;;44.80;41.60;;;17.60;79.60;;;;;;5038004;28;20488;-71
2021/09/08 07:21:04;;;;;;;41.33;38.40;;;17.70;79.00;;;;;;5038809;28;20459;-71
2021/09/08 07:23:31;;;;;;;45.63;42.23;;;17.90;78.90;;;;;;5039734;28;20485;-70
2021/09/08 07:25:59;;;;;;;42.17;38.80;;;18.00;78.50;;;;;;5047906;28;20570;-70
2021/09/08 07:28:26;;;;;;;47.13;43.40;;;18.10;78.00;;;;;;5034076;28;20476;-70
2021/09/08 07:30:54;;;;;;;44.10;40.80;;;18.20;77.90;;;;;;5038966;28;20463;-69
2021/09/08 07:33:21;;;;;;;50.20;45.70;;;18.30;77.40;;;;;;5051938;28;20456;-70
2021/09/08 07:35:48;;;;;;;45.83;42.50;;;18.50;77.10;;;;;;5038708;28;20988;-72
2021/09/08 07:38:15;;;;;;;44.60;41.30;;;18.60;76.70;;;;;;5040777;28;21017;-69
2021/09/08 07:40:43;;;;;;;47.17;43.33;;;18.70;76.30;;;;;;5038655;28;21337;-69
2021/09/08 07:43:12;;;;;;;43.70;40.40;;;18.80;75.90;;;;;;5041778;28;20546;-70
2021/09/08 07:45:39;;;;;;;45.83;42.33;;;18.90;74.90;;;;;;5037253;28;20918;-70
2021/09/08 07:48:06;;;;;;;46.27;42.13;;;18.90;74.70;;;;;;5038597;28;21006;-70
2021/09/08 07:50:34;;;;;;;45.27;40.90;;;19.00;74.80;;;;;;5035630;28;20483;-69
2021/09/08 07:53:02;;;;;;;45.57;41.33;;;19.20;74.80;;;;;;5052552;28;20462;-69
2021/09/08 07:55:29;;;;;;;44.67;41.23;;;19.30;74.30;;;;;;5035845;28;20474;-69
2021/09/08 07:57:56;;;;;;;46.00;41.97;;;19.40;73.40;;;;;;5044435;28;20450;-69
2021/09/08 08:00:24;;;;;;;43.70;40.40;;;19.50;72.30;;;;;;5035889;28;20454;-70
2021/09/08 08:02:52;;;;;;;42.00;38.90;;;19.60;71.70;;;;;;5045227;28;20473;-69
2021/09/08 08:05:20;;;;;;;45.80;42.50;;;19.70;70.80;;;;;;5041619;28;20471;-70
2021/09/08 08:07:48;;;;;;;45.17;41.50;;;19.70;71.10;;;;;;5032339;28;20480;-70
2021/09/08 08:10:17;;;;;;;45.57;41.67;;;19.80;71.50;;;;;;5036616;28;20988;-70
2021/09/08 08:12:44;;;;;;;42.63;39.23;;;19.80;71.50;;;;;;5040357;28;21982;-71
2021/09/08 08:15:13;;;;;;;43.27;39.47;;;19.80;70.80;;;;;;5030344;28;20476;-70
2021/09/08 08:17:42;;;;;;;44.27;40.93;;;19.90;70.20;;;;;;5033191;28;20455;-70
2021/09/08 08:20:10;;;;;;;39.70;36.83;;;20.00;69.80;;;;;;5037373;28;20570;-70
2021/09/08 08:22:38;;;;;;;44.73;41.13;;;20.10;69.10;;;;;;5035628;28;20470;-70
2021/09/08 08:25:07;;;;;;;40.80;37.47;;;20.00;69.20;;;;;;5034090;28;20461;-70
2021/09/08 08:27:34;;;;;;;43.23;40.03;;;20.10;68.90;;;;;;5036280;28;20479;-70
2021/09/08 08:30:02;;;;;;;40.97;37.97;;;20.20;68.70;;;;;;5033075;28;20510;-70
2021/09/08 08:32:28;;;;;;;41.47;38.57;;;20.20;68.70;;;;;;5038119;28;20571;-70
2021/09/08 08:34:57;;;;;;;37.70;34.87;;;20.30;67.80;;;;;;5035656;28;20466;-70
2021/09/08 08:37:25;;;;;;;37.63;35.03;;;20.50;66.40;;;;;;5031618;28;20455;-70
2021/09/08 08:39:54;;;;;;;41.63;38.83;;;20.60;65.70;;;;;;5038319;28;20856;-69
2021/09/08 08:42:24;;;;;;;39.00;36.30;;;20.70;65.80;;;;;;5040587;28;20478;-70
2021/09/08 08:44:51;;;;;;;42.37;39.30;;;20.80;64.60;;;;;;5033909;28;20468;-70
2021/09/08 08:47:20;;;;;;;41.70;38.90;;;20.90;64.70;;;;;;5032156;28;20645;-70
2021/09/08 08:49:48;;;;;;;38.30;35.80;;;21.00;63.90;;;;;;5032204;28;20569;-70
2021/09/08 08:52:17;;;;;;;39.13;36.20;;;21.00;63.80;;;;;;5036147;28;20469;-69
2021/09/08 08:54:44;;;;;;;37.07;34.37;;;21.10;62.70;;;;;;5038326;28;20463;-70
2021/09/08 08:57:12;;;;;;;39.10;36.40;;;21.10;62.60;;;;;;5040029;28;20470;-70
2021/09/08 08:59:41;;;;;;;38.10;35.60;;;21.10;62.60;;;;;;5041727;28;21001;-70
2021/09/08 09:02:21;;;;;;;37.27;34.60;;;21.20;62.80;;;;;;5038421;28;20455;-69
2021/09/08 09:04:48;;;;;;;38.90;36.00;;;21.40;62.20;;;;;;5044618;28;20948;-70
2021/09/08 09:07:26;;;;;;;36.90;34.30;;;21.60;62.20;;;;;;5040361;28;20852;-70
2021/09/08 09:09:55;;;;;;;40.10;37.10;;;21.70;61.60;;;;;;5036271;28;20841;-70
2021/09/08 09:12:26;;;;;;;37.80;35.13;;;21.80;62.00;;;;;;5045652;28;20542;-70
2021/09/08 09:14:58;;;;;;;38.87;36.17;;;22.00;61.40;;;;;;5038100;28;20463;-70
2021/09/08 09:17:28;;;;;;;38.43;35.83;;;22.00;60.60;;;;;;5034475;28;20471;-74
2021/09/08 09:19:55;;;;;;;36.10;33.60;;;22.00;60.30;;;;;;5032721;28;20474;-70
2021/09/08 09:22:34;;;;;;;40.00;36.67;;;22.10;60.70;;;;;;5033859;28;20470;-71
2021/09/08 09:25:01;;;;;;;37.57;34.83;;;22.30;60.00;;;;;;5038656;28;20459;-71
2021/09/08 09:27:28;;;;;;;36.53;33.83;;;22.40;60.50;;;;;;5049720;28;20483;-71
2021/09/08 09:30:04;;;;;;;35.77;33.27;;;22.40;59.90;;;;;;5044798;28;20482;-71
2021/09/08 09:32:36;;;;;;;39.67;37.13;;;22.60;60.20;;;;;;5050163;28;20472;-71
2021/09/08 09:35:04;;;;;;;35.53;33.23;;;22.70;60.00;;;;;;5043371;28;20459;-71
2021/09/08 09:37:34;;;;;;;37.87;35.27;;;22.90;59.90;;;;;;5033856;28;20454;-70
2021/09/08 09:40:06;;;;;;;36.30;33.60;;;22.90;59.00;;;;;;5035765;28;20471;-71
2021/09/08 09:42:33;;;;;;;37.73;35.07;;;23.00;58.90;;;;;;5048549;28;20463;-71
2021/09/08 09:45:01;;;;;;;36.20;33.67;;;23.00;59.30;;;;;;5048005;28;20485;-71
2021/09/08 09:47:28;;;;;;;35.10;32.70;;;23.20;58.60;;;;;;5038321;28;20525;-70
2021/09/08 09:49:56;;;;;;;37.83;35.37;;;23.30;58.50;;;;;;5049681;28;20487;-71
2021/09/08 09:52:25;;;;;;;36.43;33.80;;;23.30;58.30;;;;;;5041099;28;20467;-71
2021/09/08 09:54:53;;;;;;;39.27;36.50;;;23.40;58.10;;;;;;5047948;28;20466;-71
2021/09/08 09:57:23;;;;;;;36.27;33.60;;;23.40;58.10;;;;;;5045053;28;20458;-71
2021/09/08 09:59:52;;;;;;;36.50;34.00;;;23.40;57.90;;;;;;5041732;28;20984;-70
2021/09/08 10:02:19;;;;;;;37.10;34.60;;;23.30;57.90;;;;;;5047981;28;20458;-70
2021/09/08 10:04:48;;;;;;;39.63;37.13;;;23.40;58.00;;;;;;5041699;28;20458;-71
2021/09/08 10:07:22;;;;;;;36.27;33.40;;;23.30;57.80;;;;;;5049364;28;20477;-70
2021/09/08 10:09:57;;;;;;;37.27;34.87;;;23.30;58.00;;;;;;5046351;28;20478;-70
2021/09/08 10:12:33;;;;;;;41.23;37.77;;;23.40;57.60;;;;;;5048317;28;21355;-71
2021/09/08 10:15:02;;;;;;;38.63;35.93;;;23.40;58.10;;;;;;5042759;28;20458;-73
2021/09/08 10:17:41;;;;;;;40.00;37.40;;;23.60;58.30;;;;;;5047800;28;20547;-73
2021/09/08 10:20:11;;;;;;;38.57;35.73;;;23.70;58.20;;;;;;5046893;28;21088;-71
2021/09/08 10:22:40;;;;;;;44.30;40.53;;;23.90;58.30;;;;;;5046543;28;20458;-72
2021/09/08 10:25:14;;;;;;;38.00;35.20;;;24.00;58.30;;;;;;5045687;28;20550;-72
2021/09/08 10:27:42;;;;;;;44.83;40.77;;;24.00;57.30;;;;;;5047476;28;20904;-72
2021/09/08 10:30:12;;;;;;;40.43;37.50;;;24.10;58.60;;;;;;5046272;28;20566;-71
2021/09/08 10:32:40;;;;;;;37.57;35.40;;;24.10;57.50;;;;;;5045584;28;20594;-72
2021/09/08 10:35:15;;;;;;;39.17;36.47;;;24.10;57.30;;;;;;5032834;28;20463;-73
2021/09/08 10:37:45;;;;;;;39.93;37.00;;;24.00;58.20;;;;;;5042129;28;20473;-72
2021/09/08 10:40:14;;;;;;;38.10;35.60;;;24.10;57.80;;;;;;5042829;28;21078;-72
2021/09/08 10:42:50;;;;;;;41.07;38.27;;;24.20;57.50;;;;;;5042983;28;20539;-72
2021/09/08 10:45:18;;;;;;;38.23;35.57;;;24.40;56.90;;;;;;5036267;28;20509;-72
2021/09/08 10:47:45;;;;;;;38.10;35.33;;;24.40;57.00;;;;;;5036500;28;20481;-73
2021/09/08 10:50:13;;;;;;;40.63;37.70;;;24.50;57.30;;;;;;5036614;28;20574;-71
2021/09/08 10:52:47;;;;;;;37.57;35.10;;;24.50;56.50;;;;;;5046666;28;20455;-74
2021/09/08 10:55:23;;;;;;;37.10;34.60;;;24.60;56.40;;;;;;5047920;28;21199;-73
2021/09/08 10:58:01;;;;;;;40.73;37.87;;;24.50;56.30;;;;;;5048014;28;20609;-74
2021/09/08 11:00:35;;;;;;;38.17;35.57;;;24.50;56.40;;;;;;5038511;28;20471;-73
2021/09/08 11:03:03;;;;;;;40.87;38.23;;;24.40;56.80;;;;;;5047270;28;20447;-76
2021/09/08 11:05:30;;;;;;;39.80;36.93;;;24.60;56.30;;;;;;5037608;28;20534;-73
2021/09/08 11:07:57;;;;;;;37.33;34.93;;;24.60;56.60;;;;;;5048431;28;20479;-73
2021/09/08 11:10:31;;;;;;;37.90;35.00;;;24.70;56.00;;;;;;5046389;28;20451;-69
2021/09/08 11:13:00;;;;;;;38.60;35.90;;;24.90;55.30;;;;;;5047086;28;20537;-71
2021/09/08 11:15:32;;;;;;;37.00;34.50;;;24.90;55.30;;;;;;5047337;28;20459;-70
2021/09/08 11:17:59;;;;;;;38.43;35.73;;;24.90;55.10;;;;;;5045958;28;20971;-70
2021/09/08 11:20:26;;;;;;;39.87;36.70;;;24.90;55.40;;;;;;5045506;28;20997;-70
2021/09/08 11:23:04;;;;;;;39.63;37.13;;;25.00;55.30;;;;;;5044342;28;20949;-71
2021/09/08 11:25:34;;;;;;;41.57;39.03;;;25.00;54.40;;;;;;5033604;28;20450;-71
2021/09/08 11:28:02;;;;;;;39.27;36.53;;;24.90;55.10;;;;;;5045719;28;20479;-71
2021/09/08 11:30:33;;;;;;;43.23;40.53;;;24.90;55.40;;;;;;5047628;28;20455;-71
2021/09/08 11:33:02;;;;;;;42.80;40.03;;;24.90;56.00;;;;;;5048695;28;20526;-71
2021/09/08 11:35:37;;;;;;;40.87;38.27;;;25.00;55.80;;;;;;5038226;28;20459;-71
2021/09/08 11:38:05;;;;;;;38.80;36.20;;;25.10;54.80;;;;;;5039497;28;20459;-71
2021/09/08 11:40:34;;;;;;;37.83;35.43;;;25.20;55.00;;;;;;5040589;28;20468;-71
2021/09/08 11:43:01;;;;;;;40.60;37.80;;;25.20;54.80;;;;;;5043483;28;21020;-71
2021/09/08 11:45:29;;;;;;;41.27;38.57;;;25.20;54.30;;;;;;5041232;28;20898;-71
2021/09/08 11:47:57;;;;;;;37.60;35.10;;;25.20;53.60;;;;;;5047372;28;20565;-71
2021/09/08 11:50:24;;;;;;;40.60;37.93;;;25.30;53.80;;;;;;5043346;28;20462;-71
2021/09/08 11:52:54;;;;;;;40.50;37.70;;;25.40;54.20;;;;;;5039595;28;20845;-71
2021/09/08 11:55:26;;;;;;;41.47;38.90;;;25.50;54.70;;;;;;5040793;28;20494;-71
2021/09/08 11:57:54;;;;;;;39.90;37.40;;;25.60;54.60;;;;;;5034881;28;20458;-71
2021/09/08 12:00:21;;;;;;;37.00;34.50;;;25.60;54.60;;;;;;5032544;28;20533;-71
2021/09/08 12:02:48;;;;;;;41.00;38.30;;;25.70;53.00;;;;;;5044220;28;20455;-71
2021/09/08 12:05:22;;;;;;;39.13;36.60;;;25.80;54.00;;;;;;5043053;28;20465;-72
2021/09/08 12:07:59;;;;;;;38.23;35.73;;;25.80;53.20;;;;;;5045979;28;20567;-71
2021/09/08 12:10:37;;;;;;;40.37;37.67;;;25.90;53.00;;;;;;5037562;28;20826;-71
2021/09/08 12:13:05;;;;;;;39.87;37.27;;;26.00;53.70;;;;;;5038862;28;20455;-73
2021/09/08 12:15:33;;;;;;;40.97;38.30;;;26.10;53.10;;;;;;5038593;28;20451;-73
2021/09/08 12:18:15;;;;;;;37.70;35.30;;;26.20;52.30;;;;;;5037140;28;20463;-71
2021/09/08 12:20:42;;;;;;;40.83;38.13;;;26.20;52.90;;;;;;5038476;28;20545;-71
2021/09/08 12:23:23;;;;;;;38.50;36.00;;;26.20;53.00;;;;;;5036329;28;20820;-71
2021/09/08 12:26:04;;;;;;;40.63;37.80;;;26.40;52.30;;;;;;5035153;28;20975;-72
2021/09/08 12:28:32;;;;;;;38.13;35.77;;;26.50;51.40;;;;;;5033754;28;20484;-73
2021/09/08 12:31:16;;;;;;;39.97;37.20;;;26.50;52.30;;;;;;5043516;28;20582;-73
2021/09/08 12:33:54;;;;;;;38.30;35.47;;;26.50;51.70;;;;;;5034687;28;20448;-73